ESK034 GMTT-LEPA
Flight info
| Callsign | ESK034 |
|---|---|
| Flight time | 1h 23m |
| Altitude | 32000 |
| Route | LAMAD M143 GALTO N869 PIMOS M445 RIXUR N851 RUXET |
| Aircraft | B736/M-SDE2E3FGHIRWXY/LB1 |
Departure
| Time | 2026-05-05 17:50 |
|---|---|
| Airport | Tangier Ibn Battuta Airport (GMTT) |
Arrival
| Time | 2026-05-05 19:14 |
|---|---|
| Airport | Palma de Mallorca Airport (LEPA) |
| Time | Latitude | Longitude | Altitude | Speed | Heading |
|---|---|---|---|---|---|
| 2026-05-05 17:15 | 35.72534 | -5.91137 | 59 ft | 0 kts | 356° |
| 2026-05-05 17:35 | 35.72529 | -5.91137 | 59 ft | 3 kts | 356° |
| 2026-05-05 17:35 | 35.72509 | -5.91135 | 57 ft | 3 kts | 356° |
| 2026-05-05 17:36 | 35.72488 | -5.91133 | 56 ft | 3 kts | 356° |
| 2026-05-05 17:36 | 35.72468 | -5.91131 | 55 ft | 3 kts | 356° |
| 2026-05-05 17:36 | 35.72447 | -5.91129 | 56 ft | 3 kts | 356° |
| 2026-05-05 17:36 | 35.72446 | -5.91129 | 56 ft | 0 kts | 356° |
| 2026-05-05 17:38 | 35.72451 | -5.91132 | 59 ft | 5 kts | 339° |
| 2026-05-05 17:38 | 35.72451 | -5.91176 | 55 ft | 7 kts | 248° |
| 2026-05-05 17:38 | 35.72441 | -5.91250 | 59 ft | 10 kts | 268° |
| 2026-05-05 17:39 | 35.72439 | -5.91331 | 52 ft | 9 kts | 264° |
| 2026-05-05 17:39 | 35.72432 | -5.91413 | 59 ft | 10 kts | 266° |
| 2026-05-05 17:39 | 35.72428 | -5.91498 | 59 ft | 10 kts | 262° |
| 2026-05-05 17:39 | 35.72428 | -5.91580 | 59 ft | 10 kts | 276° |
| 2026-05-05 17:40 | 35.72456 | -5.91649 | 54 ft | 9 kts | 323° |
| 2026-05-05 17:40 | 35.72514 | -5.91686 | 56 ft | 10 kts | 345° |
| 2026-05-05 17:40 | 35.72585 | -5.91695 | 59 ft | 10 kts | 357° |
| 2026-05-05 17:40 | 35.72656 | -5.91698 | 59 ft | 10 kts | 0° |
| 2026-05-05 17:41 | 35.72725 | -5.91702 | 59 ft | 10 kts | 356° |
| 2026-05-05 17:41 | 35.72792 | -5.91711 | 59 ft | 10 kts | 355° |
| 2026-05-05 17:41 | 35.72857 | -5.91717 | 59 ft | 9 kts | 354° |
| 2026-05-05 17:41 | 35.72919 | -5.91709 | 56 ft | 9 kts | 32° |
| 2026-05-05 17:42 | 35.72945 | -5.91642 | 57 ft | 20 kts | 92° |
| 2026-05-05 17:42 | 35.72923 | -5.91453 | 57 ft | 22 kts | 95° |
| 2026-05-05 17:42 | 35.72906 | -5.91264 | 59 ft | 22 kts | 98° |
| 2026-05-05 17:42 | 35.72881 | -5.91083 | 56 ft | 21 kts | 102° |
| 2026-05-05 17:43 | 35.72862 | -5.90906 | 59 ft | 21 kts | 92° |
| 2026-05-05 17:43 | 35.72858 | -5.90753 | 58 ft | 16 kts | 96° |
| 2026-05-05 17:43 | 35.72839 | -5.90617 | 55 ft | 16 kts | 96° |
| 2026-05-05 17:43 | 35.72833 | -5.90483 | 58 ft | 15 kts | 94° |
| 2026-05-05 17:44 | 35.72827 | -5.90425 | 51 ft | 2 kts | 98° |
| 2026-05-05 17:44 | 35.72827 | -5.90423 | 51 ft | 0 kts | 98° |
| 2026-05-05 17:44 | 35.72826 | -5.90413 | 52 ft | 4 kts | 98° |
| 2026-05-05 17:44 | 35.72820 | -5.90367 | 58 ft | 6 kts | 99° |
| 2026-05-05 17:45 | 35.72814 | -5.90312 | 55 ft | 6 kts | 97° |
| 2026-05-05 17:45 | 35.72820 | -5.90260 | 53 ft | 6 kts | 65° |
| 2026-05-05 17:45 | 35.72835 | -5.90233 | 55 ft | 1 kts | 50° |
| 2026-05-05 17:45 | 35.72842 | -5.90222 | 54 ft | 3 kts | 46° |
| 2026-05-05 17:46 | 35.72845 | -5.90219 | 52 ft | 0 kts | 44° |
| 2026-05-05 17:47 | 35.72849 | -5.90215 | 55 ft | 2 kts | 39° |
| 2026-05-05 17:48 | 35.72863 | -5.90204 | 55 ft | 3 kts | 27° |
| 2026-05-05 17:48 | 35.72894 | -5.90196 | 54 ft | 5 kts | 5° |
| 2026-05-05 17:48 | 35.72929 | -5.90202 | 56 ft | 5 kts | 343° |
| 2026-05-05 17:48 | 35.72960 | -5.90220 | 57 ft | 5 kts | 326° |
| 2026-05-05 17:49 | 35.72982 | -5.90254 | 58 ft | 5 kts | 295° |
| 2026-05-05 17:49 | 35.72986 | -5.90269 | 56 ft | 0 kts | 286° |
| 2026-05-05 17:50 | 35.72993 | -5.90307 | 55 ft | 28 kts | 282° |
| 2026-05-05 17:50 | 35.73055 | -5.90945 | 59 ft | 120 kts | 276° |
| 2026-05-05 17:50 | 35.73173 | -5.92272 | 211 ft | 183 kts | 277° |
| 2026-05-05 17:50 | 35.73251 | -5.93862 | 1115 ft | 177 kts | 274° |
| 2026-05-05 17:51 | 35.73382 | -5.95246 | 1857 ft | 153 kts | 279° |
| 2026-05-05 17:51 | 35.73559 | -5.96623 | 2221 ft | 179 kts | 280° |
| 2026-05-05 17:51 | 35.73733 | -5.98318 | 2347 ft | 217 kts | 274° |
| 2026-05-05 17:51 | 35.73885 | -6.00218 | 2998 ft | 226 kts | 277° |
| 2026-05-05 17:52 | 35.73803 | -6.02105 | 4006 ft | 221 kts | 258° |
| 2026-05-05 17:52 | 35.73172 | -6.03908 | 4494 ft | 241 kts | 235° |
| 2026-05-05 17:52 | 35.71919 | -6.05344 | 4997 ft | 254 kts | 211° |
| 2026-05-05 17:52 | 35.70233 | -6.06035 | 5730 ft | 259 kts | 185° |
| 2026-05-05 17:53 | 35.68445 | -6.05807 | 6577 ft | 261 kts | 161° |
| 2026-05-05 17:53 | 35.66876 | -6.04681 | 7314 ft | 266 kts | 137° |
| 2026-05-05 17:53 | 35.65805 | -6.02812 | 8014 ft | 272 kts | 112° |
| 2026-05-05 17:53 | 35.65474 | -6.00520 | 8712 ft | 278 kts | 85° |
| 2026-05-05 17:54 | 35.65958 | -5.98219 | 9448 ft | 280 kts | 66° |
| 2026-05-05 17:54 | 35.66743 | -5.96002 | 10158 ft | 285 kts | 65° |
| 2026-05-05 17:54 | 35.67561 | -5.93754 | 10877 ft | 290 kts | 65° |
| 2026-05-05 17:54 | 35.68376 | -5.91473 | 11543 ft | 296 kts | 65° |
| 2026-05-05 17:55 | 35.69222 | -5.89049 | 11773 ft | 321 kts | 66° |
| 2026-05-05 17:55 | 35.70118 | -5.86422 | 11993 ft | 344 kts | 66° |
| 2026-05-05 17:55 | 35.71053 | -5.83651 | 12503 ft | 355 kts | 66° |
| 2026-05-05 17:55 | 35.72005 | -5.80815 | 13244 ft | 360 kts | 67° |
| 2026-05-05 17:56 | 35.72966 | -5.77958 | 13982 ft | 364 kts | 66° |
| 2026-05-05 17:56 | 35.73945 | -5.75063 | 14706 ft | 368 kts | 66° |
| 2026-05-05 17:56 | 35.74931 | -5.72142 | 15503 ft | 372 kts | 66° |
| 2026-05-05 17:56 | 35.75933 | -5.69156 | 15991 ft | 387 kts | 68° |
| 2026-05-05 17:57 | 35.76616 | -5.65870 | 16432 ft | 403 kts | 81° |
| 2026-05-05 17:57 | 35.76986 | -5.62479 | 17168 ft | 406 kts | 83° |
| 2026-05-05 17:57 | 35.77287 | -5.59301 | 17904 ft | 409 kts | 82° |
| 2026-05-05 17:57 | 35.77672 | -5.55761 | 18581 ft | 414 kts | 81° |
| 2026-05-05 17:58 | 35.78117 | -5.52231 | 18957 ft | 424 kts | 80° |
| 2026-05-05 17:58 | 35.78579 | -5.48785 | 19096 ft | 438 kts | 80° |
| 2026-05-05 17:58 | 35.79069 | -5.45235 | 19364 ft | 447 kts | 80° |
| 2026-05-05 17:58 | 35.79598 | -5.41448 | 19777 ft | 451 kts | 80° |
| 2026-05-05 17:59 | 35.80129 | -5.37623 | 20243 ft | 454 kts | 80° |
| 2026-05-05 17:59 | 35.80660 | -5.33778 | 20696 ft | 457 kts | 80° |
| 2026-05-05 17:59 | 35.81193 | -5.29893 | 21119 ft | 461 kts | 80° |
| 2026-05-05 17:59 | 35.81727 | -5.25988 | 21521 ft | 465 kts | 81° |
| 2026-05-05 18:00 | 35.82265 | -5.22043 | 21882 ft | 469 kts | 81° |
| 2026-05-05 18:00 | 35.82984 | -5.18115 | 22211 ft | 473 kts | 70° |
| 2026-05-05 18:00 | 35.84507 | -5.14529 | 22551 ft | 474 kts | 53° |
| 2026-05-05 18:00 | 35.86726 | -5.11546 | 22913 ft | 473 kts | 37° |
| 2026-05-05 18:01 | 35.89446 | -5.09279 | 23264 ft | 473 kts | 29° |
| 2026-05-05 18:01 | 35.92263 | -5.07151 | 23550 ft | 476 kts | 28° |
| 2026-05-05 18:01 | 35.95098 | -5.05010 | 23776 ft | 480 kts | 29° |
| 2026-05-05 18:01 | 35.97933 | -5.02832 | 24068 ft | 481 kts | 29° |
| 2026-05-05 18:02 | 36.00766 | -5.00616 | 24362 ft | 482 kts | 30° |
| 2026-05-05 18:02 | 36.03593 | -4.98380 | 24622 ft | 484 kts | 30° |
| 2026-05-05 18:02 | 36.06428 | -4.96123 | 24858 ft | 486 kts | 30° |
| 2026-05-05 18:02 | 36.09270 | -4.93861 | 25084 ft | 487 kts | 30° |
| 2026-05-05 18:03 | 36.12128 | -4.91590 | 25309 ft | 489 kts | 29° |
| 2026-05-05 18:03 | 36.14943 | -4.89216 | 25517 ft | 493 kts | 34° |
| 2026-05-05 18:03 | 36.17511 | -4.86362 | 25725 ft | 498 kts | 43° |
| 2026-05-05 18:03 | 36.19914 | -4.83274 | 25973 ft | 499 kts | 44° |
| 2026-05-05 18:04 | 36.22295 | -4.80136 | 26190 ft | 501 kts | 44° |
| 2026-05-05 18:04 | 36.24674 | -4.76986 | 26409 ft | 502 kts | 44° |
| 2026-05-05 18:04 | 36.27064 | -4.73836 | 26709 ft | 501 kts | 44° |
| 2026-05-05 18:04 | 36.29459 | -4.70701 | 27041 ft | 500 kts | 44° |
| 2026-05-05 18:05 | 36.31859 | -4.67580 | 27374 ft | 499 kts | 43° |
| 2026-05-05 18:05 | 36.34254 | -4.64476 | 27665 ft | 499 kts | 43° |
| 2026-05-05 18:05 | 36.36661 | -4.61361 | 27961 ft | 500 kts | 43° |
| 2026-05-05 18:05 | 36.39066 | -4.58249 | 28297 ft | 499 kts | 43° |
| 2026-05-05 18:06 | 36.41465 | -4.55140 | 28669 ft | 499 kts | 43° |
| 2026-05-05 18:06 | 36.43050 | -4.53084 | 28925 ft | 498 kts | 43° |
| 2026-05-05 18:06 | 36.46255 | -4.48920 | 29403 ft | 498 kts | 43° |
| 2026-05-05 18:06 | 36.48645 | -4.45811 | 29752 ft | 498 kts | 43° |
| 2026-05-05 18:07 | 36.51042 | -4.42690 | 30110 ft | 498 kts | 43° |
| 2026-05-05 18:07 | 36.53432 | -4.39573 | 30443 ft | 498 kts | 43° |
| 2026-05-05 18:07 | 36.55836 | -4.36437 | 30548 ft | 504 kts | 43° |
| 2026-05-05 18:07 | 36.58267 | -4.33263 | 30677 ft | 508 kts | 43° |
| 2026-05-05 18:08 | 36.60646 | -4.30149 | 31381 ft | 496 kts | 43° |
| 2026-05-05 18:08 | 36.63024 | -4.27032 | 31767 ft | 484 kts | 43° |
| 2026-05-05 18:08 | 36.65311 | -4.24031 | 31944 ft | 474 kts | 43° |
| 2026-05-05 18:09 | 36.69817 | -4.18124 | 31949 ft | 479 kts | 43° |
| 2026-05-05 18:09 | 36.74505 | -4.11974 | 31956 ft | 494 kts | 44° |
| 2026-05-05 18:10 | 36.79268 | -4.05704 | 31948 ft | 507 kts | 44° |
| 2026-05-05 18:10 | 36.84174 | -3.99226 | 31953 ft | 518 kts | 44° |
| 2026-05-05 18:11 | 36.89145 | -3.92648 | 31951 ft | 521 kts | 44° |
| 2026-05-05 18:11 | 36.94110 | -3.86063 | 31966 ft | 520 kts | 44° |
| 2026-05-05 18:12 | 36.99068 | -3.79478 | 31964 ft | 521 kts | 44° |
| 2026-05-05 18:12 | 37.04032 | -3.72870 | 31961 ft | 521 kts | 44° |
| 2026-05-05 18:13 | 37.08981 | -3.66255 | 31970 ft | 521 kts | 45° |
| 2026-05-05 18:13 | 37.13076 | -3.58737 | 31964 ft | 526 kts | 62° |
| 2026-05-05 18:14 | 37.16255 | -3.50462 | 31972 ft | 527 kts | 63° |
| 2026-05-05 18:14 | 37.19436 | -3.42174 | 31966 ft | 527 kts | 62° |
| 2026-05-05 18:15 | 37.22687 | -3.33929 | 31965 ft | 528 kts | 62° |
| 2026-05-05 18:15 | 37.25943 | -3.25674 | 31959 ft | 527 kts | 62° |
| 2026-05-05 18:16 | 37.29156 | -3.17467 | 31960 ft | 527 kts | 62° |
| 2026-05-05 18:16 | 37.32380 | -3.09195 | 31965 ft | 527 kts | 62° |
| 2026-05-05 18:17 | 37.35600 | -3.00910 | 31951 ft | 528 kts | 63° |
| 2026-05-05 18:17 | 37.38817 | -2.92607 | 31952 ft | 528 kts | 63° |
| 2026-05-05 18:18 | 37.42027 | -2.84311 | 31940 ft | 528 kts | 63° |
| 2026-05-05 18:18 | 37.45240 | -2.76008 | 31955 ft | 528 kts | 63° |
| 2026-05-05 18:19 | 37.48448 | -2.67702 | 31946 ft | 528 kts | 63° |
| 2026-05-05 18:19 | 37.51652 | -2.59371 | 31949 ft | 529 kts | 63° |
| 2026-05-05 18:20 | 37.54851 | -2.51025 | 31939 ft | 529 kts | 63° |
| 2026-05-05 18:20 | 37.58043 | -2.42674 | 31942 ft | 529 kts | 63° |
| 2026-05-05 18:21 | 37.61235 | -2.34301 | 31938 ft | 530 kts | 63° |
| 2026-05-05 18:21 | 37.64426 | -2.25920 | 31919 ft | 530 kts | 63° |
| 2026-05-05 18:22 | 37.67616 | -2.17537 | 31936 ft | 530 kts | 63° |
| 2026-05-05 18:22 | 37.70801 | -2.09145 | 31926 ft | 530 kts | 63° |
| 2026-05-05 18:23 | 37.73979 | -2.00736 | 31915 ft | 531 kts | 63° |
| 2026-05-05 18:23 | 37.77156 | -1.92303 | 31906 ft | 531 kts | 63° |
| 2026-05-05 18:24 | 37.80194 | -1.84218 | 31907 ft | 532 kts | 63° |
| 2026-05-05 18:24 | 37.83364 | -1.75757 | 31907 ft | 532 kts | 63° |
| 2026-05-05 18:25 | 37.86526 | -1.67292 | 31902 ft | 533 kts | 64° |
| 2026-05-05 18:25 | 37.89687 | -1.58806 | 31916 ft | 533 kts | 63° |
| 2026-05-05 18:26 | 37.92824 | -1.50364 | 31886 ft | 533 kts | 64° |
| 2026-05-05 18:26 | 37.95964 | -1.41868 | 31899 ft | 533 kts | 64° |
| 2026-05-05 18:27 | 37.99094 | -1.33366 | 31902 ft | 532 kts | 64° |
| 2026-05-05 18:27 | 38.02220 | -1.24849 | 31903 ft | 533 kts | 64° |
| 2026-05-05 18:28 | 38.06900 | -1.12055 | 31901 ft | 533 kts | 64° |
| 2026-05-05 18:28 | 38.10011 | -1.03518 | 31899 ft | 533 kts | 64° |
| 2026-05-05 18:29 | 38.13124 | -0.94963 | 31901 ft | 534 kts | 64° |
| 2026-05-05 18:29 | 38.16225 | -0.86406 | 31905 ft | 534 kts | 64° |
| 2026-05-05 18:30 | 38.18799 | -0.79282 | 31908 ft | 534 kts | 64° |
| 2026-05-05 18:30 | 38.21889 | -0.70704 | 31917 ft | 534 kts | 64° |
| 2026-05-05 18:31 | 38.24977 | -0.62102 | 31911 ft | 534 kts | 64° |
| 2026-05-05 18:31 | 38.28015 | -0.53487 | 31911 ft | 535 kts | 66° |
| 2026-05-05 18:32 | 38.30798 | -0.44712 | 31914 ft | 535 kts | 67° |
| 2026-05-05 18:32 | 38.33555 | -0.35893 | 31917 ft | 536 kts | 67° |
| 2026-05-05 18:33 | 38.36358 | -0.27096 | 31910 ft | 536 kts | 66° |
| 2026-05-05 18:33 | 38.39264 | -0.18347 | 31903 ft | 537 kts | 65° |
| 2026-05-05 18:34 | 38.42197 | -0.09595 | 31900 ft | 537 kts | 66° |
| 2026-05-05 18:34 | 38.45104 | -0.00812 | 31896 ft | 538 kts | 66° |
| 2026-05-05 18:35 | 38.47965 | 0.08014 | 31894 ft | 538 kts | 66° |
| 2026-05-05 18:35 | 38.50797 | 0.16866 | 31891 ft | 539 kts | 67° |
| 2026-05-05 18:36 | 38.53624 | 0.25721 | 31892 ft | 539 kts | 67° |
| 2026-05-05 18:36 | 38.56452 | 0.34589 | 31892 ft | 539 kts | 67° |
| 2026-05-05 18:37 | 38.59272 | 0.43461 | 31893 ft | 539 kts | 67° |
| 2026-05-05 18:37 | 38.62092 | 0.52344 | 31889 ft | 539 kts | 67° |
| 2026-05-05 18:38 | 38.64896 | 0.61156 | 31895 ft | 539 kts | 67° |
| 2026-05-05 18:38 | 38.67406 | 0.70162 | 31872 ft | 537 kts | 81° |
| 2026-05-05 18:39 | 38.68455 | 0.79611 | 31894 ft | 536 kts | 84° |
| 2026-05-05 18:39 | 38.69355 | 0.89069 | 31893 ft | 535 kts | 84° |
| 2026-05-05 18:40 | 38.70289 | 0.98151 | 31895 ft | 535 kts | 84° |
| 2026-05-05 18:40 | 38.71314 | 1.07591 | 31904 ft | 535 kts | 83° |
| 2026-05-05 18:41 | 38.71825 | 1.12261 | 31885 ft | 521 kts | 83° |
| 2026-05-05 18:41 | 38.72318 | 1.16774 | 31885 ft | 504 kts | 84° |
| 2026-05-05 18:41 | 38.73272 | 1.25617 | 31915 ft | 500 kts | 84° |
| 2026-05-05 18:42 | 38.74206 | 1.34431 | 31917 ft | 499 kts | 84° |
| 2026-05-05 18:42 | 38.74672 | 1.38854 | 31425 ft | 505 kts | 84° |
| 2026-05-05 18:42 | 38.75142 | 1.43332 | 30601 ft | 505 kts | 84° |
| 2026-05-05 18:43 | 38.75606 | 1.47754 | 29819 ft | 499 kts | 84° |
| 2026-05-05 18:43 | 38.76065 | 1.52146 | 28933 ft | 494 kts | 84° |
| 2026-05-05 18:43 | 38.76516 | 1.56480 | 28079 ft | 488 kts | 84° |
| 2026-05-05 18:43 | 38.76961 | 1.60769 | 27246 ft | 483 kts | 84° |
| 2026-05-05 18:44 | 38.77398 | 1.65006 | 26440 ft | 478 kts | 84° |
| 2026-05-05 18:44 | 38.77841 | 1.69319 | 25643 ft | 478 kts | 84° |
| 2026-05-05 18:44 | 38.78264 | 1.73454 | 24903 ft | 480 kts | 84° |
| 2026-05-05 18:44 | 38.78695 | 1.77697 | 24163 ft | 479 kts | 84° |
| 2026-05-05 18:45 | 38.79122 | 1.81895 | 23409 ft | 471 kts | 83° |
| 2026-05-05 18:45 | 38.79541 | 1.86015 | 22536 ft | 462 kts | 83° |
| 2026-05-05 18:45 | 38.79949 | 1.89772 | 21749 ft | 456 kts | 79° |
| 2026-05-05 18:45 | 38.80965 | 1.93595 | 20920 ft | 455 kts | 60° |
| 2026-05-05 18:46 | 38.82733 | 1.96946 | 20168 ft | 451 kts | 50° |
| 2026-05-05 18:46 | 38.84659 | 2.00070 | 19383 ft | 443 kts | 49° |
| 2026-05-05 18:46 | 38.86577 | 2.03118 | 18626 ft | 436 kts | 49° |
| 2026-05-05 18:46 | 38.88477 | 2.06153 | 17848 ft | 437 kts | 49° |
| 2026-05-05 18:47 | 38.90306 | 2.09278 | 17013 ft | 435 kts | 52° |
| 2026-05-05 18:47 | 38.92092 | 2.12376 | 16182 ft | 428 kts | 52° |
| 2026-05-05 18:47 | 38.93855 | 2.15416 | 15388 ft | 421 kts | 52° |
| 2026-05-05 18:47 | 38.95600 | 2.18403 | 14606 ft | 415 kts | 52° |
| 2026-05-05 18:48 | 38.97329 | 2.21342 | 13851 ft | 409 kts | 52° |
| 2026-05-05 18:48 | 38.99038 | 2.24230 | 13019 ft | 404 kts | 52° |
| 2026-05-05 18:48 | 39.00728 | 2.27074 | 12206 ft | 398 kts | 52° |
| 2026-05-05 18:48 | 39.02396 | 2.29885 | 11412 ft | 392 kts | 51° |
| 2026-05-05 18:49 | 39.04037 | 2.32659 | 10626 ft | 386 kts | 51° |
| 2026-05-05 18:49 | 39.05630 | 2.35365 | 10256 ft | 370 kts | 51° |
| 2026-05-05 18:49 | 39.07131 | 2.37929 | 10106 ft | 349 kts | 51° |
| 2026-05-05 18:49 | 39.08548 | 2.40362 | 9959 ft | 330 kts | 51° |
| 2026-05-05 18:50 | 39.09883 | 2.42665 | 9898 ft | 312 kts | 51° |
| 2026-05-05 18:50 | 39.11164 | 2.44885 | 9902 ft | 309 kts | 51° |
| 2026-05-05 18:50 | 39.12438 | 2.47095 | 9904 ft | 307 kts | 51° |
| 2026-05-05 18:50 | 39.13716 | 2.49314 | 9918 ft | 309 kts | 51° |
| 2026-05-05 18:51 | 39.14998 | 2.51539 | 9901 ft | 309 kts | 51° |
| 2026-05-05 18:51 | 39.16281 | 2.53767 | 9918 ft | 309 kts | 51° |
| 2026-05-05 18:51 | 39.17545 | 2.55963 | 9909 ft | 309 kts | 51° |
| 2026-05-05 18:51 | 39.18828 | 2.58193 | 9899 ft | 309 kts | 51° |
| 2026-05-05 18:52 | 39.20108 | 2.60419 | 9895 ft | 309 kts | 51° |
| 2026-05-05 18:52 | 39.21391 | 2.62649 | 9634 ft | 314 kts | 51° |
| 2026-05-05 18:52 | 39.22713 | 2.64944 | 8918 ft | 321 kts | 51° |
| 2026-05-05 18:52 | 39.24037 | 2.67248 | 8368 ft | 318 kts | 51° |
| 2026-05-05 18:53 | 39.25338 | 2.69521 | 8022 ft | 309 kts | 51° |
| 2026-05-05 18:53 | 39.26574 | 2.71694 | 7912 ft | 292 kts | 51° |
| 2026-05-05 18:53 | 39.27736 | 2.73749 | 7889 ft | 275 kts | 51° |
| 2026-05-05 18:53 | 39.28841 | 2.75717 | 7891 ft | 269 kts | 51° |
| 2026-05-05 18:54 | 39.29934 | 2.77672 | 7903 ft | 269 kts | 51° |
| 2026-05-05 18:54 | 39.31033 | 2.79637 | 7914 ft | 270 kts | 51° |
| 2026-05-05 18:54 | 39.32135 | 2.81607 | 7918 ft | 271 kts | 52° |
| 2026-05-05 18:54 | 39.33159 | 2.83438 | 7916 ft | 272 kts | 51° |
| 2026-05-05 18:55 | 39.34261 | 2.85410 | 7953 ft | 268 kts | 52° |
| 2026-05-05 18:55 | 39.35343 | 2.87350 | 7905 ft | 264 kts | 52° |
| 2026-05-05 18:55 | 39.36408 | 2.89265 | 7900 ft | 262 kts | 52° |
| 2026-05-05 18:55 | 39.37479 | 2.91190 | 7913 ft | 267 kts | 52° |
| 2026-05-05 18:56 | 39.38565 | 2.93141 | 7906 ft | 268 kts | 51° |
| 2026-05-05 18:56 | 39.39650 | 2.95095 | 7899 ft | 267 kts | 52° |
| 2026-05-05 18:56 | 39.40730 | 2.97036 | 7899 ft | 266 kts | 52° |
| 2026-05-05 18:56 | 39.41813 | 2.98981 | 7896 ft | 266 kts | 52° |
| 2026-05-05 18:57 | 39.42891 | 3.00915 | 7897 ft | 266 kts | 51° |
| 2026-05-05 18:57 | 39.43972 | 3.02855 | 7898 ft | 265 kts | 52° |
| 2026-05-05 18:57 | 39.45052 | 3.04794 | 7900 ft | 266 kts | 52° |
| 2026-05-05 18:57 | 39.46135 | 3.06737 | 7906 ft | 266 kts | 52° |
| 2026-05-05 18:58 | 39.47221 | 3.08683 | 7913 ft | 267 kts | 52° |
| 2026-05-05 18:58 | 39.48313 | 3.10636 | 7906 ft | 268 kts | 52° |
| 2026-05-05 18:58 | 39.49410 | 3.12598 | 7903 ft | 269 kts | 52° |
| 2026-05-05 18:58 | 39.50505 | 3.14558 | 7873 ft | 270 kts | 52° |
| 2026-05-05 18:59 | 39.51630 | 3.16568 | 7359 ft | 281 kts | 52° |
| 2026-05-05 18:59 | 39.52768 | 3.18601 | 6851 ft | 277 kts | 52° |
| 2026-05-05 18:59 | 39.53889 | 3.20608 | 6333 ft | 274 kts | 52° |
| 2026-05-05 18:59 | 39.55001 | 3.22602 | 5772 ft | 271 kts | 52° |
| 2026-05-05 19:00 | 39.56093 | 3.24577 | 5248 ft | 268 kts | 51° |
| 2026-05-05 19:00 | 39.57142 | 3.26497 | 5055 ft | 252 kts | 52° |
| 2026-05-05 19:00 | 39.58119 | 3.28302 | 4976 ft | 239 kts | 52° |
| 2026-05-05 19:00 | 39.59059 | 3.30061 | 4984 ft | 238 kts | 52° |
| 2026-05-05 19:01 | 39.60024 | 3.31858 | 4993 ft | 245 kts | 52° |
| 2026-05-05 19:01 | 39.60996 | 3.33664 | 4981 ft | 244 kts | 52° |
| 2026-05-05 19:01 | 39.61965 | 3.35470 | 4977 ft | 243 kts | 52° |
| 2026-05-05 19:01 | 39.62914 | 3.37235 | 4978 ft | 241 kts | 51° |
| 2026-05-05 19:02 | 39.64081 | 3.38717 | 4975 ft | 232 kts | 22° |
| 2026-05-05 19:02 | 39.65596 | 3.39153 | 4980 ft | 222 kts | 348° |
| 2026-05-05 19:02 | 39.66991 | 3.38438 | 4964 ft | 215 kts | 315° |
| 2026-05-05 19:02 | 39.67848 | 3.36897 | 4990 ft | 211 kts | 294° |
| 2026-05-05 19:03 | 39.68484 | 3.35173 | 4979 ft | 213 kts | 292° |
| 2026-05-05 19:03 | 39.69102 | 3.33430 | 4978 ft | 211 kts | 292° |
| 2026-05-05 19:03 | 39.69697 | 3.31730 | 4950 ft | 202 kts | 292° |
| 2026-05-05 19:03 | 39.70270 | 3.30100 | 4960 ft | 195 kts | 291° |
| 2026-05-05 19:04 | 39.70832 | 3.28508 | 4957 ft | 194 kts | 292° |
| 2026-05-05 19:04 | 39.71394 | 3.26920 | 4968 ft | 192 kts | 291° |
| 2026-05-05 19:04 | 39.71928 | 3.25354 | 4961 ft | 187 kts | 284° |
| 2026-05-05 19:04 | 39.71954 | 3.23707 | 5000 ft | 183 kts | 261° |
| 2026-05-05 19:05 | 39.71756 | 3.21999 | 4492 ft | 202 kts | 262° |
| 2026-05-05 19:05 | 39.71552 | 3.20209 | 4245 ft | 192 kts | 262° |
| 2026-05-05 19:05 | 39.71361 | 3.18564 | 4106 ft | 181 kts | 262° |
| 2026-05-05 19:05 | 39.71181 | 3.16970 | 4036 ft | 179 kts | 262° |
| 2026-05-05 19:06 | 39.71005 | 3.15348 | 3992 ft | 179 kts | 262° |
| 2026-05-05 19:06 | 39.70828 | 3.13784 | 3988 ft | 176 kts | 262° |
| 2026-05-05 19:06 | 39.70654 | 3.12212 | 3983 ft | 176 kts | 262° |
| 2026-05-05 19:06 | 39.70479 | 3.10634 | 3989 ft | 178 kts | 262° |
| 2026-05-05 19:07 | 39.70299 | 3.09040 | 3979 ft | 179 kts | 262° |
| 2026-05-05 19:07 | 39.70016 | 3.07470 | 3982 ft | 180 kts | 250° |
| 2026-05-05 19:07 | 39.69498 | 3.05986 | 3968 ft | 181 kts | 244° |
| 2026-05-05 19:07 | 39.68900 | 3.04552 | 3969 ft | 181 kts | 242° |
| 2026-05-05 19:08 | 39.68265 | 3.03142 | 3975 ft | 179 kts | 241° |
| 2026-05-05 19:08 | 39.67629 | 3.01776 | 3997 ft | 176 kts | 241° |
| 2026-05-05 19:08 | 39.66983 | 3.00405 | 3997 ft | 179 kts | 240° |
| 2026-05-05 19:08 | 39.66327 | 2.99015 | 3987 ft | 182 kts | 240° |
| 2026-05-05 19:09 | 39.65656 | 2.97596 | 3770 ft | 184 kts | 241° |
| 2026-05-05 19:09 | 39.65005 | 2.96220 | 3526 ft | 172 kts | 240° |
| 2026-05-05 19:09 | 39.64404 | 2.94953 | 3314 ft | 158 kts | 240° |
| 2026-05-05 19:09 | 39.63836 | 2.93754 | 3126 ft | 156 kts | 241° |
| 2026-05-05 19:10 | 39.63266 | 2.92545 | 2931 ft | 158 kts | 240° |
| 2026-05-05 19:10 | 39.62686 | 2.91317 | 2711 ft | 160 kts | 240° |
| 2026-05-05 19:10 | 39.62101 | 2.90078 | 2516 ft | 166 kts | 239° |
| 2026-05-05 19:10 | 39.61480 | 2.88764 | 2275 ft | 172 kts | 239° |
| 2026-05-05 19:11 | 39.60869 | 2.87473 | 2075 ft | 161 kts | 239° |
| 2026-05-05 19:11 | 39.60304 | 2.86275 | 1837 ft | 153 kts | 239° |
| 2026-05-05 19:11 | 39.59746 | 2.85092 | 1651 ft | 153 kts | 238° |
| 2026-05-05 19:11 | 39.59195 | 2.83924 | 1436 ft | 151 kts | 238° |
| 2026-05-05 19:12 | 39.58645 | 2.82763 | 1227 ft | 152 kts | 236° |
| 2026-05-05 19:12 | 39.58108 | 2.81631 | 1005 ft | 141 kts | 236° |
| 2026-05-05 19:12 | 39.57617 | 2.80586 | 834 ft | 136 kts | 236° |
| 2026-05-05 19:12 | 39.57122 | 2.79532 | 665 ft | 137 kts | 236° |
| 2026-05-05 19:13 | 39.56628 | 2.78482 | 469 ft | 135 kts | 235° |
| 2026-05-05 19:13 | 39.56141 | 2.77451 | 291 ft | 132 kts | 235° |
| 2026-05-05 19:13 | 39.55673 | 2.76456 | 119 ft | 128 kts | 236° |
| 2026-05-05 19:13 | 39.55199 | 2.75468 | 36 ft | 123 kts | 235° |
| 2026-05-05 19:14 | 39.54873 | 2.74775 | 29 ft | 65 kts | 240° |
| 2026-05-05 19:14 | 39.54817 | 2.74567 | 29 ft | 18 kts | 259° |
| 2026-05-05 19:14 | 39.54811 | 2.74476 | 29 ft | 8 kts | 263° |
| 2026-05-05 19:14 | 39.54806 | 2.74403 | 29 ft | 8 kts | 266° |
| 2026-05-05 19:15 | 39.54798 | 2.74332 | 29 ft | 6 kts | 263° |
| 2026-05-05 19:15 | 39.54796 | 2.74277 | 29 ft | 6 kts | 266° |
| 2026-05-05 19:15 | 39.54796 | 2.74221 | 29 ft | 6 kts | 274° |
| 2026-05-05 19:15 | 39.54810 | 2.74169 | 29 ft | 7 kts | 302° |
| 2026-05-05 19:16 | 39.54842 | 2.74122 | 29 ft | 7 kts | 321° |
| 2026-05-05 19:16 | 39.54869 | 2.74096 | 29 ft | 7 kts | 322° |
| 2026-05-05 19:16 | 39.54910 | 2.74064 | 29 ft | 7 kts | 336° |
| 2026-05-05 19:16 | 39.54952 | 2.74037 | 29 ft | 7 kts | 333° |
| 2026-05-05 19:17 | 39.54992 | 2.74006 | 29 ft | 7 kts | 328° |
| 2026-05-05 19:17 | 39.55029 | 2.73973 | 29 ft | 6 kts | 324° |
| 2026-05-05 19:17 | 39.55066 | 2.73941 | 29 ft | 6 kts | 329° |
| 2026-05-05 19:17 | 39.55105 | 2.73913 | 29 ft | 6 kts | 330° |
| 2026-05-05 19:18 | 39.55145 | 2.73881 | 29 ft | 8 kts | 327° |
| 2026-05-05 19:18 | 39.55192 | 2.73839 | 29 ft | 8 kts | 327° |
| 2026-05-05 19:18 | 39.55238 | 2.73796 | 29 ft | 8 kts | 324° |
| 2026-05-05 19:18 | 39.55284 | 2.73755 | 29 ft | 8 kts | 326° |
| 2026-05-05 19:19 | 39.55331 | 2.73723 | 29 ft | 8 kts | 338° |
| 2026-05-05 19:19 | 39.55378 | 2.73693 | 29 ft | 7 kts | 329° |
| 2026-05-05 19:19 | 39.55420 | 2.73657 | 29 ft | 7 kts | 326° |
| 2026-05-05 19:19 | 39.55460 | 2.73621 | 29 ft | 7 kts | 322° |
| 2026-05-05 19:20 | 39.55487 | 2.73572 | 29 ft | 7 kts | 286° |
| 2026-05-05 19:20 | 39.55478 | 2.73513 | 29 ft | 7 kts | 240° |
| 2026-05-05 19:20 | 39.55452 | 2.73463 | 29 ft | 7 kts | 237° |
| 2026-05-05 19:20 | 39.55429 | 2.73412 | 29 ft | 7 kts | 240° |
| 2026-05-05 19:21 | 39.55408 | 2.73361 | 29 ft | 6 kts | 243° |
| 2026-05-05 19:21 | 39.55383 | 2.73308 | 29 ft | 10 kts | 237° |
| 2026-05-05 19:21 | 39.55343 | 2.73228 | 29 ft | 11 kts | 238° |
| 2026-05-05 19:21 | 39.55304 | 2.73147 | 29 ft | 10 kts | 236° |
| 2026-05-05 19:22 | 39.55267 | 2.73068 | 29 ft | 10 kts | 238° |
| 2026-05-05 19:22 | 39.55230 | 2.72992 | 29 ft | 10 kts | 235° |
| 2026-05-05 19:22 | 39.55195 | 2.72920 | 29 ft | 8 kts | 238° |
| 2026-05-05 19:22 | 39.55165 | 2.72858 | 29 ft | 8 kts | 232° |
| 2026-05-05 19:23 | 39.55120 | 2.72838 | 29 ft | 0 kts | 183° |
| 2026-05-05 19:23 | 39.55116 | 2.72838 | 29 ft | 5 kts | 182° |
| 2026-05-05 19:23 | 39.55082 | 2.72835 | 29 ft | 2 kts | 184° |
| 2026-05-05 19:23 | 39.55080 | 2.72835 | 29 ft | 0 kts | 184° |